Washington — WDC3825 — position and weather

sailwx.info

Track history (hours):
 
Tides and Currents Weather Stations Pressure Air Temp Water Temp Dewpoint Dewpoint Depression Visibility Wind Speed Wind Dir Waves Ship Positions

Washington

Owner: Peoria Harbor Service, Creve Coeur, IL. More information available from US FCC via Universal Licensing System.

Last reported at 2015-Aug-20 20:33 UTC. Time now 2015-Sep-01 08:01 UTC.
Position N 45°34' W 122°44'.
Warning: this ship's position is 11 days out of date.

Date/timePositionNaut miles runAvg speedWind from/ knotsBaromVisibWave heightAir tempDewpointWater temp
2015-Aug-20 20:33N 45°34' W 122°44'0 0.0
2015-Aug-20 19:34N 45°34' W 122°44'0 0.0
2015-Aug-20 18:33N 45°34' W 122°44'0 0.0
2015-Aug-20 17:33N 45°34' W 122°44'0 0.0
2015-Aug-20 16:33N 45°34' W 122°44'0 0.0
2015-Aug-20 15:33N 45°34' W 122°44'0 0.0
2015-Aug-20 14:31N 45°34' W 122°44'0 0.0
2015-Aug-20 13:33N 45°34' W 122°44'0 0.0
2015-Aug-20 12:34N 45°34' W 122°44'0 0.0
2015-Aug-20 11:33N 45°34' W 122°44'0 0.0
2015-Aug-20 10:33N 45°34' W 122°44'2 2.5
2015-Aug-20 09:33N 45°35' W 122°46'3 3.0
2015-Aug-20 08:33N 45°38' W 122°44'1 0.8
2015-Aug-20 07:33N 45°39' W 122°45'5 4.8
2015-Aug-20 06:33N 45°34' W 122°44'0 0.3
2015-Aug-20 05:33N 45°34' W 122°44'0 0.0
2015-Aug-20 04:33N 45°34' W 122°44'0 0.0
2015-Aug-20 03:33N 45°34' W 122°44'0 0.0
2015-Aug-20 02:33N 45°34' W 122°44'0 0.0
2015-Aug-20 01:33N 45°34' W 122°44'0 0.0
2015-Aug-20 00:34N 45°34' W 122°44'0 0.0
2015-Aug-19 23:33N 45°34' W 122°44'0 0.0
2015-Aug-19 22:33N 45°34' W 122°44'0 0.2
2015-Aug-19 21:33N 45°34' W 122°43'2 2.4
2015-Aug-19 20:33N 45°32' W 122°41'1 1.2
2015-Aug-19 19:34N 45°33' W 122°42'0 0.0
2015-Aug-19 18:33N 45°33' W 122°42'0 0.3
2015-Aug-19 17:33N 45°33' W 122°42'1 0.5
2015-Aug-19 15:20N 45°34' W 122°44'0 0.0
2015-Aug-19 14:29N 45°34' W 122°44'0 0.0
2015-Aug-19 12:32N 45°34' W 122°44'0 0.0
2015-Aug-19 11:32N 45°34' W 122°44'0 0.0
2015-Aug-19 10:23N 45°34' W 122°44'0 0.0
2015-Aug-19 09:29N 45°34' W 122°44'0 0.0
2015-Aug-19 08:14N 45°34' W 122°44'0 0.0
2015-Aug-19 07:32N 45°34' W 122°44'0 0.1
2015-Aug-19 06:23N 45°34' W 122°44'0 0.0
2015-Aug-19 05:29N 45°34' W 122°44'0 0.0
2015-Aug-19 04:20N 45°34' W 122°44'0 0.0
2015-Aug-19 03:23N 45°34' W 122°44'0 0.0
2015-Aug-19 02:32N 45°34' W 122°44'0 0.0
2015-Aug-19 01:32N 45°34' W 122°44'0 0.0
2015-Aug-19 00:26N 45°34' W 122°44'0 0.0
2015-Aug-18 23:32N 45°34' W 122°44'4 3.7
2015-Aug-18 22:34N 45°36' W 122°47'3 2.4
2015-Aug-18 21:28N 45°39' W 122°45'0 0.0
2015-Aug-18 20:31N 45°39' W 122°45'0 0.0
2015-Aug-18 19:31N 45°39' W 122°45'0 0.0
2015-Aug-18 18:13N 45°39' W 122°45'0 0.0
2015-Aug-18 17:28N 45°39' W 122°45'0 0.0
2015-Aug-18 16:04N 45°39' W 122°45'0 0.0
2015-Aug-18 15:31N 45°39' W 122°45'0 0.0
2015-Aug-18 14:25N 45°39' W 122°45'0 0.0
2015-Aug-18 13:31N 45°39' W 122°45'0 0.0
2015-Aug-18 12:10N 45°39' W 122°45'0 0.0
2015-Aug-18 11:28N 45°39' W 122°45'0 0.0
2015-Aug-18 10:28N 45°39' W 122°45'0 0.0
2015-Aug-18 08:28N 45°39' W 122°45'0 0.0
2015-Aug-18 07:04N 45°39' W 122°45'0 0.0
2015-Aug-18 06:25N 45°39' W 122°45'0 0.0
2015-Aug-18 05:31N 45°39' W 122°45'0 0.0
2015-Aug-18 04:22N 45°39' W 122°45'0 0.0
2015-Aug-18 04:04N 45°39' W 122°45'0 0.0
2015-Aug-18 03:25N 45°39' W 122°45'0 0.0
2015-Aug-18 02:34N 45°39' W 122°45'0 0.0
2015-Aug-18 01:28N 45°39' W 122°45'0 0.0
2015-Aug-18 00:19N 45°39' W 122°45'2 3.0
2015-Aug-17 23:33N 45°38' W 122°42'2 2.2
2015-Aug-17 22:31N 45°39' W 122°45'0 0.0
2015-Aug-17 21:31N 45°39' W 122°45'0 0.0
2015-Aug-17 19:25N 45°39' W 122°45'0 0.0
2015-Aug-17 18:22N 45°39' W 122°45'0 0.0
2015-Aug-17 17:31N 45°39' W 122°45'0 0.0
2015-Aug-17 16:25N 45°39' W 122°45'0 0.0
2015-Aug-17 15:28N 45°39' W 122°45'0 0.0
2015-Aug-17 14:31N 45°39' W 122°45'0 0.0
2015-Aug-17 13:19N 45°39' W 122°45'0 0.0
2015-Aug-17 12:28N 45°39' W 122°45'0 0.0
2015-Aug-17 11:19N 45°39' W 122°45'0 0.0
2015-Aug-17 10:31N 45°39' W 122°45'0 0.0
2015-Aug-17 09:28N 45°39' W 122°45'0 0.0
2015-Aug-17 08:31N 45°39' W 122°45'0 0.0
2015-Aug-17 07:34N 45°39' W 122°45'0 0.0
2015-Aug-17 06:34N 45°39' W 122°45'0 0.0
2015-Aug-17 05:34N 45°39' W 122°45'0 0.0
2015-Aug-17 04:22N 45°39' W 122°45'0 0.0
2015-Aug-17 03:34N 45°39' W 122°45'0 0.0
2015-Aug-17 02:31N 45°39' W 122°45'0 0.0
2015-Aug-17 01:34N 45°39' W 122°45'0 0.0
2015-Aug-17 00:25N 45°39' W 122°45'0 0.0
2015-Aug-16 23:22N 45°39' W 122°45'0 0.0
2015-Aug-16 22:34N 45°39' W 122°45'0 0.0
2015-Aug-16 21:34N 45°39' W 122°45'0 0.0
2015-Aug-16 20:31N 45°39' W 122°45'0 0.0
2015-Aug-16 19:33N 45°39' W 122°45'0 0.0
2015-Aug-16 18:28N 45°39' W 122°45'0 0.0
2015-Aug-16 17:27N 45°39' W 122°45'0 0.0
2015-Aug-16 16:28N 45°39' W 122°45'0 0.0
2015-Aug-16 15:22N 45°39' W 122°45'0 0.0
2015-Aug-16 14:34N 45°39' W 122°45'0 0.0
2015-Aug-16 13:22N 45°39' W 122°45'0 0.0
2015-Aug-16 12:19N 45°39' W 122°45'0 0.0
2015-Aug-16 11:31N 45°39' W 122°45'0 0.0
2015-Aug-16 10:28N 45°39' W 122°45'0 0.0
2015-Aug-16 09:34N 45°39' W 122°45'0 0.0
2015-Aug-16 08:34N 45°39' W 122°45'0 0.0
2015-Aug-16 07:34N 45°39' W 122°45'0 0.0
2015-Aug-16 06:25N 45°39' W 122°45'0 0.0
2015-Aug-16 05:34N 45°39' W 122°45'0 0.0
2015-Aug-16 04:28N 45°39' W 122°45'0 0.0
2015-Aug-16 03:34N 45°39' W 122°45'0 0.0
2015-Aug-16 02:34N 45°39' W 122°45'0 0.0
2015-Aug-16 01:30N 45°39' W 122°45'0 0.0
2015-Aug-16 00:30N 45°39' W 122°45'0 0.0
2015-Aug-15 23:34N 45°39' W 122°45'0 0.0
2015-Aug-15 22:34N 45°39' W 122°45'0 0.0
2015-Aug-15 21:30N 45°39' W 122°45'0 0.0
2015-Aug-15 20:33N 45°39' W 122°45'0 0.0
2015-Aug-15 19:33N 45°39' W 122°45'0 0.0
2015-Aug-15 18:34N 45°39' W 122°45'0 0.0
2015-Aug-15 17:30N 45°39' W 122°45'0 0.0
2015-Aug-15 16:33N 45°39' W 122°45'0 0.0
2015-Aug-15 15:30N 45°39' W 122°45'0 0.0
2015-Aug-15 14:30N 45°39' W 122°45'0 0.0
2015-Aug-15 13:30N 45°39' W 122°45'0 0.0
2015-Aug-15 12:30N 45°39' W 122°45'0 0.0
2015-Aug-15 11:24N 45°39' W 122°45'0 0.0
2015-Aug-15 10:30N 45°39' W 122°45'0 0.0
2015-Aug-15 09:33N 45°39' W 122°45'0 0.0
2015-Aug-15 08:30N 45°39' W 122°45'0 0.0
2015-Aug-15 07:24N 45°39' W 122°45'0 0.0
2015-Aug-15 06:34N 45°39' W 122°45'0 0.0
2015-Aug-15 05:27N 45°39' W 122°45'0 0.0
2015-Aug-15 04:33N 45°39' W 122°45'0 0.0
2015-Aug-15 03:33N 45°39' W 122°45'0 0.0
2015-Aug-15 02:30N 45°39' W 122°45'0 0.0
2015-Aug-15 01:24N 45°39' W 122°45'0 0.0
2015-Aug-15 00:33N 45°39' W 122°45'0 0.0
2015-Aug-14 23:33N 45°39' W 122°45'0 0.0
2015-Aug-14 22:30N 45°39' W 122°45'0 0.0
2015-Aug-14 21:24N 45°39' W 122°45'0 0.0
2015-Aug-14 20:33N 45°39' W 122°45'0 0.0
2015-Aug-14 19:33N 45°39' W 122°45'0 0.0
2015-Aug-14 18:33N 45°39' W 122°45'0 0.0
2015-Aug-14 17:33N 45°39' W 122°45'0 0.0
2015-Aug-14 16:12N 45°39' W 122°45'0 0.0
2015-Aug-14 15:30N 45°39' W 122°45'1 0.8
2015-Aug-14 14:33N 45°38' W 122°44'1 1.1
2015-Aug-14 13:33N 45°38' W 122°43'2 1.9
2015-Aug-14 12:33N 45°39' W 122°45'0 0.0
2015-Aug-14 11:34N 45°39' W 122°45'0 0.0
2015-Aug-14 10:33N 45°39' W 122°45'0 0.0
2015-Aug-14 09:33N 45°39' W 122°45'0 0.0
2015-Aug-14 08:33N 45°39' W 122°45'0 0.0
2015-Aug-14 07:33N 45°39' W 122°45'0 0.0
2015-Aug-14 06:33N 45°39' W 122°45'0 0.0
2015-Aug-14 05:33N 45°39' W 122°45'0 0.0
2015-Aug-14 04:33N 45°39' W 122°45'0 0.0
2015-Aug-14 03:33N 45°39' W 122°45'2 1.6
2015-Aug-14 02:33N 45°38' W 122°43'1 0.8
2015-Aug-14 01:33N 45°39' W 122°44'1 0.8
2015-Aug-14 00:33N 45°39' W 122°45'5 5.1
2015-Aug-13 23:33N 45°34' W 122°44'0 0.1
2015-Aug-13 22:33N 45°34' W 122°44'0 0.0
2015-Aug-13 21:33N 45°34' W 122°44'0 0.0
2015-Aug-13 20:33N 45°34' W 122°44'0 0.0
2015-Aug-13 19:33N 45°34' W 122°44'0 0.0
2015-Aug-13 18:33N 45°34' W 122°44'0 0.0
2015-Aug-13 17:33N 45°34' W 122°44'5 5.1
2015-Aug-13 16:33N 45°39' W 122°44'4 4.5
2015-Aug-13 15:33N 45°37' W 122°39'0 0.1
2015-Aug-13 14:29N 45°37' W 122°39'0 0.0
2015-Aug-13 13:33N 45°37' W 122°39'0 0.0
2015-Aug-13 12:33N 45°37' W 122°39'0 0.0
2015-Aug-13 11:33N 45°37' W 122°39'0 0.0
2015-Aug-13 10:33N 45°37' W 122°39'0 0.0
2015-Aug-13 09:34N 45°37' W 122°39'0 0.0
2015-Aug-13 08:33N 45°37' W 122°39'0 0.0
2015-Aug-13 07:33N 45°37' W 122°39'0 0.0
2015-Aug-13 06:33N 45°37' W 122°39'0 0.0
2015-Aug-13 05:33N 45°37' W 122°39'0 0.0
2015-Aug-13 04:33N 45°37' W 122°39'0 0.0
2015-Aug-13 03:33N 45°37' W 122°39'0 0.0
2015-Aug-13 02:32N 45°37' W 122°39'0 0.0
2015-Aug-13 01:33N 45°37' W 122°39'0 0.0
2015-Aug-13 00:34N 45°37' W 122°39'0 0.0
2015-Aug-12 23:34N 45°37' W 122°39'0 0.0
2015-Aug-12 22:33N 45°37' W 122°39'0 0.0
2015-Aug-12 21:33N 45°37' W 122°39'0 0.0
2015-Aug-12 20:33N 45°37' W 122°39'0 0.0
2015-Aug-12 19:33N 45°37' W 122°39'0 0.0
2015-Aug-12 18:33N 45°37' W 122°39'0 0.0
2015-Aug-12 17:33N 45°37' W 122°39'0 0.0
2015-Aug-12 16:32N 45°37' W 122°39'0 0.0
2015-Aug-12 15:33N 45°37' W 122°39'0 0.0
2015-Aug-12 14:33N 45°37' W 122°39'0 0.0
2015-Aug-12 13:33N 45°37' W 122°39'0 0.0
2015-Aug-12 12:33N 45°37' W 122°39'0 0.0
2015-Aug-12 11:34N 45°37' W 122°39'0 0.0
2015-Aug-12 10:33N 45°37' W 122°39'0 0.0
2015-Aug-12 09:34N 45°37' W 122°39'0 0.0
2015-Aug-12 08:33N 45°37' W 122°39'0 0.0
2015-Aug-12 07:33N 45°37' W 122°39'0 0.0
2015-Aug-12 06:33N 45°37' W 122°39'0 0.0
2015-Aug-12 05:33N 45°37' W 122°39'0 0.0
2015-Aug-12 04:33N 45°37' W 122°39'0 0.0
2015-Aug-12 03:33N 45°37' W 122°39'0 0.0
2015-Aug-12 02:33N 45°37' W 122°39'0 0.0
2015-Aug-12 01:33N 45°37' W 122°39'0 0.0
2015-Aug-12 00:33N 45°37' W 122°39'0 0.0
2015-Aug-11 23:33N 45°37' W 122°39'0 0.0
2015-Aug-11 22:34N 45°37' W 122°39'0 0.0
2015-Aug-11 21:33N 45°37' W 122°39'0 0.0
2015-Aug-11 20:33N 45°37' W 122°39'0 0.0
2015-Aug-11 19:33N 45°37' W 122°39'0 0.0
2015-Aug-11 18:33N 45°37' W 122°39'0 0.0
2015-Aug-11 17:33N 45°37' W 122°39'0 0.0
2015-Aug-11 16:33N 45°37' W 122°39'0 0.0
2015-Aug-11 15:33N 45°37' W 122°39'0 0.0
2015-Aug-11 14:33N 45°37' W 122°39'0 0.0
2015-Aug-11 13:33N 45°37' W 122°39'0 0.0
2015-Aug-11 12:33N 45°37' W 122°39'0 0.0
2015-Aug-11 11:33N 45°37' W 122°39'0 0.0
2015-Aug-11 10:34N 45°37' W 122°39'0 0.0
2015-Aug-11 09:33N 45°37' W 122°39'0 0.0
2015-Aug-11 08:33N 45°37' W 122°39'0 0.0
2015-Aug-11 07:33N 45°37' W 122°39'0 0.0
2015-Aug-11 06:33N 45°37' W 122°39'0 0.0
2015-Aug-11 05:33N 45°37' W 122°39'0 0.0
2015-Aug-11 04:33N 45°37' W 122°39'0 0.0
2015-Aug-11 03:33N 45°37' W 122°39'0 0.0
2015-Aug-11 02:33N 45°37' W 122°39'0 0.0
2015-Aug-11 01:33N 45°37' W 122°39'0 0.0
2015-Aug-11 00:33N 45°37' W 122°39'0 0.0
2015-Aug-10 23:34N 45°37' W 122°39'0 0.0
2015-Aug-10 22:33N 45°37' W 122°39'0 0.0
2015-Aug-10 21:33N 45°37' W 122°39'0 0.0
2015-Aug-10 20:33N 45°37' W 122°39'  
Track history (hours):
 
Tides and Currents Weather Stations Pressure Air Temp Water Temp Dewpoint Dewpoint Depression Visibility Wind Speed Wind Dir Waves Ship Positions

Washington

Owner: Peoria Harbor Service, Creve Coeur, IL. More information available from US FCC via Universal Licensing System.

Last reported at 2015-Aug-20 20:33 UTC. Time now 2015-Sep-01 08:01 UTC.
Position N 45°34' W 122°44'.
Warning: this ship's position is 11 days out of date.

Date/timePositionNaut miles runAvg speedWind from/ knotsBaromVisibWave heightAir tempDewpointWater temp
2015-Aug-20 20:33N 45°34' W 122°44'0 0.0
2015-Aug-20 19:34N 45°34' W 122°44'0 0.0
2015-Aug-20 18:33N 45°34' W 122°44'0 0.0
2015-Aug-20 17:33N 45°34' W 122°44'0 0.0
2015-Aug-20 16:33N 45°34' W 122°44'0 0.0
2015-Aug-20 15:33N 45°34' W 122°44'0 0.0
2015-Aug-20 14:31N 45°34' W 122°44'0 0.0
2015-Aug-20 13:33N 45°34' W 122°44'0 0.0
2015-Aug-20 12:34N 45°34' W 122°44'0 0.0
2015-Aug-20 11:33N 45°34' W 122°44'0 0.0
2015-Aug-20 10:33N 45°34' W 122°44'2 2.5
2015-Aug-20 09:33N 45°35' W 122°46'3 3.0
2015-Aug-20 08:33N 45°38' W 122°44'1 0.8
2015-Aug-20 07:33N 45°39' W 122°45'5 4.8
2015-Aug-20 06:33N 45°34' W 122°44'0 0.3
2015-Aug-20 05:33N 45°34' W 122°44'0 0.0
2015-Aug-20 04:33N 45°34' W 122°44'0 0.0
2015-Aug-20 03:33N 45°34' W 122°44'0 0.0
2015-Aug-20 02:33N 45°34' W 122°44'0 0.0
2015-Aug-20 01:33N 45°34' W 122°44'0 0.0
2015-Aug-20 00:34N 45°34' W 122°44'0 0.0
2015-Aug-19 23:33N 45°34' W 122°44'0 0.0
2015-Aug-19 22:33N 45°34' W 122°44'0 0.2
2015-Aug-19 21:33N 45°34' W 122°43'2 2.4
2015-Aug-19 20:33N 45°32' W 122°41'1 1.2
2015-Aug-19 19:34N 45°33' W 122°42'0 0.0
2015-Aug-19 18:33N 45°33' W 122°42'0 0.3
2015-Aug-19 17:33N 45°33' W 122°42'1 0.5
2015-Aug-19 15:20N 45°34' W 122°44'0 0.0
2015-Aug-19 14:29N 45°34' W 122°44'0 0.0
2015-Aug-19 12:32N 45°34' W 122°44'0 0.0
2015-Aug-19 11:32N 45°34' W 122°44'0 0.0
2015-Aug-19 10:23N 45°34' W 122°44'0 0.0
2015-Aug-19 09:29N 45°34' W 122°44'0 0.0
2015-Aug-19 08:14N 45°34' W 122°44'0 0.0
2015-Aug-19 07:32N 45°34' W 122°44'0 0.1
2015-Aug-19 06:23N 45°34' W 122°44'0 0.0
2015-Aug-19 05:29N 45°34' W 122°44'0 0.0
2015-Aug-19 04:20N 45°34' W 122°44'0 0.0
2015-Aug-19 03:23N 45°34' W 122°44'0 0.0
2015-Aug-19 02:32N 45°34' W 122°44'0 0.0
2015-Aug-19 01:32N 45°34' W 122°44'0 0.0
2015-Aug-19 00:26N 45°34' W 122°44'0 0.0
2015-Aug-18 23:32N 45°34' W 122°44'4 3.7
2015-Aug-18 22:34N 45°36' W 122°47'3 2.4
2015-Aug-18 21:28N 45°39' W 122°45'0 0.0
2015-Aug-18 20:31N 45°39' W 122°45'0 0.0
2015-Aug-18 19:31N 45°39' W 122°45'0 0.0
2015-Aug-18 18:13N 45°39' W 122°45'0 0.0
2015-Aug-18 17:28N 45°39' W 122°45'0 0.0
2015-Aug-18 16:04N 45°39' W 122°45'0 0.0
2015-Aug-18 15:31N 45°39' W 122°45'0 0.0
2015-Aug-18 14:25N 45°39' W 122°45'0 0.0
2015-Aug-18 13:31N 45°39' W 122°45'0 0.0
2015-Aug-18 12:10N 45°39' W 122°45'0 0.0
2015-Aug-18 11:28N 45°39' W 122°45'0 0.0
2015-Aug-18 10:28N 45°39' W 122°45'0 0.0
2015-Aug-18 08:28N 45°39' W 122°45'0 0.0
2015-Aug-18 07:04N 45°39' W 122°45'0 0.0
2015-Aug-18 06:25N 45°39' W 122°45'0 0.0
2015-Aug-18 05:31N 45°39' W 122°45'0 0.0
2015-Aug-18 04:22N 45°39' W 122°45'0 0.0
2015-Aug-18 04:04N 45°39' W 122°45'0 0.0
2015-Aug-18 03:25N 45°39' W 122°45'0 0.0
2015-Aug-18 02:34N 45°39' W 122°45'0 0.0
2015-Aug-18 01:28N 45°39' W 122°45'0 0.0
2015-Aug-18 00:19N 45°39' W 122°45'2 3.0
2015-Aug-17 23:33N 45°38' W 122°42'2 2.2
2015-Aug-17 22:31N 45°39' W 122°45'0 0.0
2015-Aug-17 21:31N 45°39' W 122°45'0 0.0
2015-Aug-17 19:25N 45°39' W 122°45'0 0.0
2015-Aug-17 18:22N 45°39' W 122°45'0 0.0
2015-Aug-17 17:31N 45°39' W 122°45'0 0.0
2015-Aug-17 16:25N 45°39' W 122°45'0 0.0
2015-Aug-17 15:28N 45°39' W 122°45'0 0.0
2015-Aug-17 14:31N 45°39' W 122°45'0 0.0
2015-Aug-17 13:19N 45°39' W 122°45'0 0.0
2015-Aug-17 12:28N 45°39' W 122°45'0 0.0
2015-Aug-17 11:19N 45°39' W 122°45'0 0.0
2015-Aug-17 10:31N 45°39' W 122°45'0 0.0
2015-Aug-17 09:28N 45°39' W 122°45'0 0.0
2015-Aug-17 08:31N 45°39' W 122°45'0 0.0
2015-Aug-17 07:34N 45°39' W 122°45'0 0.0
2015-Aug-17 06:34N 45°39' W 122°45'0 0.0
2015-Aug-17 05:34N 45°39' W 122°45'0 0.0
2015-Aug-17 04:22N 45°39' W 122°45'0 0.0
2015-Aug-17 03:34N 45°39' W 122°45'0 0.0
2015-Aug-17 02:31N 45°39' W 122°45'0 0.0
2015-Aug-17 01:34N 45°39' W 122°45'0 0.0
2015-Aug-17 00:25N 45°39' W 122°45'0 0.0
2015-Aug-16 23:22N 45°39' W 122°45'0 0.0
2015-Aug-16 22:34N 45°39' W 122°45'0 0.0
2015-Aug-16 21:34N 45°39' W 122°45'0 0.0
2015-Aug-16 20:31N 45°39' W 122°45'0 0.0
2015-Aug-16 19:33N 45°39' W 122°45'0 0.0
2015-Aug-16 18:28N 45°39' W 122°45'0 0.0
2015-Aug-16 17:27N 45°39' W 122°45'0 0.0
2015-Aug-16 16:28N 45°39' W 122°45'0 0.0
2015-Aug-16 15:22N 45°39' W 122°45'0 0.0
2015-Aug-16 14:34N 45°39' W 122°45'0 0.0
2015-Aug-16 13:22N 45°39' W 122°45'0 0.0
2015-Aug-16 12:19N 45°39' W 122°45'0 0.0
2015-Aug-16 11:31N 45°39' W 122°45'0 0.0
2015-Aug-16 10:28N 45°39' W 122°45'0 0.0
2015-Aug-16 09:34N 45°39' W 122°45'0 0.0
2015-Aug-16 08:34N 45°39' W 122°45'0 0.0
2015-Aug-16 07:34N 45°39' W 122°45'0 0.0
2015-Aug-16 06:25N 45°39' W 122°45'0 0.0
2015-Aug-16 05:34N 45°39' W 122°45'0 0.0
2015-Aug-16 04:28N 45°39' W 122°45'0 0.0
2015-Aug-16 03:34N 45°39' W 122°45'0 0.0
2015-Aug-16 02:34N 45°39' W 122°45'0 0.0
2015-Aug-16 01:30N 45°39' W 122°45'0 0.0
2015-Aug-16 00:30N 45°39' W 122°45'0 0.0
2015-Aug-15 23:34N 45°39' W 122°45'0 0.0
2015-Aug-15 22:34N 45°39' W 122°45'0 0.0
2015-Aug-15 21:30N 45°39' W 122°45'0 0.0
2015-Aug-15 20:33N 45°39' W 122°45'0 0.0
2015-Aug-15 19:33N 45°39' W 122°45'0 0.0
2015-Aug-15 18:34N 45°39' W 122°45'0 0.0
2015-Aug-15 17:30N 45°39' W 122°45'0 0.0
2015-Aug-15 16:33N 45°39' W 122°45'0 0.0
2015-Aug-15 15:30N 45°39' W 122°45'0 0.0
2015-Aug-15 14:30N 45°39' W 122°45'0 0.0
2015-Aug-15 13:30N 45°39' W 122°45'0 0.0
2015-Aug-15 12:30N 45°39' W 122°45'0 0.0
2015-Aug-15 11:24N 45°39' W 122°45'0 0.0
2015-Aug-15 10:30N 45°39' W 122°45'0 0.0
2015-Aug-15 09:33N 45°39' W 122°45'0 0.0
2015-Aug-15 08:30N 45°39' W 122°45'0 0.0
2015-Aug-15 07:24N 45°39' W 122°45'0 0.0
2015-Aug-15 06:34N 45°39' W 122°45'0 0.0
2015-Aug-15 05:27N 45°39' W 122°45'0 0.0
2015-Aug-15 04:33N 45°39' W 122°45'0 0.0
2015-Aug-15 03:33N 45°39' W 122°45'0 0.0
2015-Aug-15 02:30N 45°39' W 122°45'0 0.0
2015-Aug-15 01:24N 45°39' W 122°45'0 0.0
2015-Aug-15 00:33N 45°39' W 122°45'0 0.0
2015-Aug-14 23:33N 45°39' W 122°45'0 0.0
2015-Aug-14 22:30N 45°39' W 122°45'0 0.0
2015-Aug-14 21:24N 45°39' W 122°45'0 0.0
2015-Aug-14 20:33N 45°39' W 122°45'0 0.0
2015-Aug-14 19:33N 45°39' W 122°45'0 0.0
2015-Aug-14 18:33N 45°39' W 122°45'0 0.0
2015-Aug-14 17:33N 45°39' W 122°45'0 0.0
2015-Aug-14 16:12N 45°39' W 122°45'0 0.0
2015-Aug-14 15:30N 45°39' W 122°45'1 0.8
2015-Aug-14 14:33N 45°38' W 122°44'1 1.1
2015-Aug-14 13:33N 45°38' W 122°43'2 1.9
2015-Aug-14 12:33N 45°39' W 122°45'0 0.0
2015-Aug-14 11:34N 45°39' W 122°45'0 0.0
2015-Aug-14 10:33N 45°39' W 122°45'0 0.0
2015-Aug-14 09:33N 45°39' W 122°45'0 0.0
2015-Aug-14 08:33N 45°39' W 122°45'0 0.0
2015-Aug-14 07:33N 45°39' W 122°45'0 0.0
2015-Aug-14 06:33N 45°39' W 122°45'0 0.0
2015-Aug-14 05:33N 45°39' W 122°45'0 0.0
2015-Aug-14 04:33N 45°39' W 122°45'0 0.0
2015-Aug-14 03:33N 45°39' W 122°45'2 1.6
2015-Aug-14 02:33N 45°38' W 122°43'1 0.8
2015-Aug-14 01:33N 45°39' W 122°44'1 0.8
2015-Aug-14 00:33N 45°39' W 122°45'5 5.1
2015-Aug-13 23:33N 45°34' W 122°44'0 0.1
2015-Aug-13 22:33N 45°34' W 122°44'0 0.0
2015-Aug-13 21:33N 45°34' W 122°44'0 0.0
2015-Aug-13 20:33N 45°34' W 122°44'0 0.0
2015-Aug-13 19:33N 45°34' W 122°44'0 0.0
2015-Aug-13 18:33N 45°34' W 122°44'0 0.0
2015-Aug-13 17:33N 45°34' W 122°44'5 5.1
2015-Aug-13 16:33N 45°39' W 122°44'4 4.5
2015-Aug-13 15:33N 45°37' W 122°39'0 0.1
2015-Aug-13 14:29N 45°37' W 122°39'0 0.0
2015-Aug-13 13:33N 45°37' W 122°39'0 0.0
2015-Aug-13 12:33N 45°37' W 122°39'0 0.0
2015-Aug-13 11:33N 45°37' W 122°39'0 0.0
2015-Aug-13 10:33N 45°37' W 122°39'0 0.0
2015-Aug-13 09:34N 45°37' W 122°39'0 0.0
2015-Aug-13 08:33N 45°37' W 122°39'0 0.0
2015-Aug-13 07:33N 45°37' W 122°39'0 0.0
2015-Aug-13 06:33N 45°37' W 122°39'0 0.0
2015-Aug-13 05:33N 45°37' W 122°39'0 0.0
2015-Aug-13 04:33N 45°37' W 122°39'0 0.0
2015-Aug-13 03:33N 45°37' W 122°39'0 0.0
2015-Aug-13 02:32N 45°37' W 122°39'0 0.0
2015-Aug-13 01:33N 45°37' W 122°39'0 0.0
2015-Aug-13 00:34N 45°37' W 122°39'0 0.0
2015-Aug-12 23:34N 45°37' W 122°39'0 0.0
2015-Aug-12 22:33N 45°37' W 122°39'0 0.0
2015-Aug-12 21:33N 45°37' W 122°39'0 0.0
2015-Aug-12 20:33N 45°37' W 122°39'0 0.0
2015-Aug-12 19:33N 45°37' W 122°39'0 0.0
2015-Aug-12 18:33N 45°37' W 122°39'0 0.0
2015-Aug-12 17:33N 45°37' W 122°39'0 0.0
2015-Aug-12 16:32N 45°37' W 122°39'0 0.0
2015-Aug-12 15:33N 45°37' W 122°39'0 0.0
2015-Aug-12 14:33N 45°37' W 122°39'0 0.0
2015-Aug-12 13:33N 45°37' W 122°39'0 0.0
2015-Aug-12 12:33N 45°37' W 122°39'0 0.0
2015-Aug-12 11:34N 45°37' W 122°39'0 0.0
2015-Aug-12 10:33N 45°37' W 122°39'0 0.0
2015-Aug-12 09:34N 45°37' W 122°39'0 0.0
2015-Aug-12 08:33N 45°37' W 122°39'0 0.0
2015-Aug-12 07:33N 45°37' W 122°39'0 0.0
2015-Aug-12 06:33N 45°37' W 122°39'0 0.0
2015-Aug-12 05:33N 45°37' W 122°39'0 0.0
2015-Aug-12 04:33N 45°37' W 122°39'0 0.0
2015-Aug-12 03:33N 45°37' W 122°39'0 0.0
2015-Aug-12 02:33N 45°37' W 122°39'0 0.0
2015-Aug-12 01:33N 45°37' W 122°39'0 0.0
2015-Aug-12 00:33N 45°37' W 122°39'0 0.0
2015-Aug-11 23:33N 45°37' W 122°39'0 0.0
2015-Aug-11 22:34N 45°37' W 122°39'0 0.0
2015-Aug-11 21:33N 45°37' W 122°39'0 0.0
2015-Aug-11 20:33N 45°37' W 122°39'0 0.0
2015-Aug-11 19:33N 45°37' W 122°39'0 0.0
2015-Aug-11 18:33N 45°37' W 122°39'0 0.0
2015-Aug-11 17:33N 45°37' W 122°39'0 0.0
2015-Aug-11 16:33N 45°37' W 122°39'0 0.0
2015-Aug-11 15:33N 45°37' W 122°39'0 0.0
2015-Aug-11 14:33N 45°37' W 122°39'0 0.0
2015-Aug-11 13:33N 45°37' W 122°39'0 0.0
2015-Aug-11 12:33N 45°37' W 122°39'0 0.0
2015-Aug-11 11:33N 45°37' W 122°39'0 0.0
2015-Aug-11 10:34N 45°37' W 122°39'0 0.0
2015-Aug-11 09:33N 45°37' W 122°39'0 0.0
2015-Aug-11 08:33N 45°37' W 122°39'0 0.0
2015-Aug-11 07:33N 45°37' W 122°39'0 0.0
2015-Aug-11 06:33N 45°37' W 122°39'0 0.0
2015-Aug-11 05:33N 45°37' W 122°39'0 0.0
2015-Aug-11 04:33N 45°37' W 122°39'0 0.0
2015-Aug-11 03:33N 45°37' W 122°39'0 0.0
2015-Aug-11 02:33N 45°37' W 122°39'0 0.0
2015-Aug-11 01:33N 45°37' W 122°39'0 0.0
2015-Aug-11 00:33N 45°37' W 122°39'0 0.0
2015-Aug-10 23:34N 45°37' W 122°39'0 0.0
2015-Aug-10 22:33N 45°37' W 122°39'0 0.0
2015-Aug-10 21:33N 45°37' W 122°39'0 0.0
2015-Aug-10 20:33N 45°37' W 122°39'  

Dump ship's entire track history